17°C Temp
11°C Dewpoint
68% Humidity
Temperature
2 KM/H
1 MPH
1 KTS
Calm
Due North

Wind Speed
Clear
Conditions
Pressure 1013.92 (hPa) - 29.94 (in)
Visibility 6.2 (mi) - 10.0 (km)

Current Conditions
LEJR
Location 25(km)
Metar :LEJR 190430Z VRB01KT CAVOK 17/11 Q1014
Fri 19th August 06:30 am

Airport
  Metar Aviation API Data Provided by https://www.checkwx.com/ PHP scripts by weather34.com ©2022